createdAt,value
2018-03-23T00:01:20.118Z,3.67
2018-03-23T00:04:25.626Z,3.67
2018-03-23T00:07:31.252Z,3.66
2018-03-23T00:10:36.759Z,3.64
2018-03-23T00:13:42.087Z,3.62
2018-03-23T00:16:47.605Z,3.62
2018-03-23T00:19:53.172Z,3.60
2018-03-23T00:22:58.716Z,3.59
2018-03-23T00:26:05.906Z,3.57
2018-03-23T00:29:11.929Z,3.56
2018-03-23T00:32:21.038Z,3.55
2018-03-23T00:35:26.605Z,3.54
2018-03-23T00:38:32.164Z,3.52
2018-03-23T00:41:38.610Z,3.53
2018-03-23T00:44:46.979Z,3.53
2018-03-23T00:47:54.067Z,3.49
2018-03-23T00:51:01.493Z,3.47
2018-03-23T00:54:07.539Z,3.46
2018-03-23T00:57:13.066Z,3.45
2018-03-23T01:00:18.630Z,3.44
2018-03-23T01:03:24.190Z,3.42
2018-03-23T01:06:29.795Z,3.40
2018-03-23T01:09:35.290Z,3.40
2018-03-23T01:12:40.833Z,3.39
2018-03-23T01:15:46.342Z,3.38
2018-03-23T01:18:52.166Z,3.35
2018-03-23T01:21:57.509Z,3.33
2018-03-23T01:25:03.052Z,3.31
2018-03-23T01:28:08.563Z,3.31
2018-03-23T01:31:14.113Z,3.29
2018-03-23T01:34:19.650Z,3.28
2018-03-23T01:37:25.307Z,3.25
2018-03-23T01:40:34.002Z,3.21
2018-03-23T01:43:39.555Z,3.20
2018-03-23T01:46:45.079Z,3.19
2018-03-23T01:49:50.631Z,3.18
2018-03-23T01:52:56.179Z,3.17
2018-03-23T01:56:01.736Z,3.15
2018-03-23T01:59:07.286Z,3.15
2018-03-23T02:02:12.790Z,3.11
2018-03-23T02:05:18.340Z,3.10
2018-03-23T02:08:23.879Z,3.08
2018-03-23T02:11:29.445Z,3.06
2018-03-23T02:14:34.956Z,3.03
2018-03-23T02:17:40.519Z,3.02
2018-03-23T02:20:45.758Z,2.98
2018-03-23T02:23:51.319Z,2.98
2018-03-23T02:26:56.958Z,2.97
2018-03-23T02:30:02.366Z,2.94
2018-03-23T02:33:07.888Z,2.91
2018-03-23T02:36:13.445Z,2.94
2018-03-23T02:39:19.146Z,2.90
2018-03-23T02:42:26.077Z,2.90
2018-03-23T02:45:31.647Z,2.89
2018-03-23T02:48:37.229Z,2.86
2018-03-23T02:51:42.787Z,2.84
2018-03-23T02:54:48.309Z,2.83
2018-03-23T02:57:54.293Z,2.81
2018-03-23T03:00:59.848Z,2.79
2018-03-23T03:04:05.273Z,2.80
2018-03-23T03:07:10.821Z,2.81
2018-03-23T03:10:16.210Z,2.78
2018-03-23T03:13:21.796Z,2.76
2018-03-23T03:16:27.302Z,2.72
2018-03-23T03:19:32.877Z,2.71
2018-03-23T03:22:38.466Z,2.72
2018-03-23T03:25:43.973Z,2.69
2018-03-23T03:28:49.518Z,2.69
2018-03-23T03:32:03.083Z,2.67
2018-03-23T03:35:46.029Z,2.64
2018-03-23T03:38:56.470Z,2.63
2018-03-23T03:42:06.996Z,2.66
2018-03-23T03:45:17.483Z,2.67
2018-03-23T03:48:26.505Z,2.67
2018-03-23T03:51:37.894Z,2.64
2018-03-23T03:54:46.713Z,2.61
2018-03-23T03:57:54.182Z,2.61
2018-03-23T04:01:01.945Z,2.59
2018-03-23T04:04:10.523Z,2.58
2018-03-23T04:07:18.691Z,2.58
2018-03-23T04:10:32.246Z,2.55
2018-03-23T04:13:37.811Z,2.54
2018-03-23T04:16:43.324Z,2.54
2018-03-23T04:19:48.894Z,2.54
2018-03-23T04:22:54.391Z,2.54
2018-03-23T04:25:59.960Z,2.56
2018-03-23T04:29:05.518Z,2.55
2018-03-23T04:32:11.081Z,2.53
2018-03-23T04:35:16.577Z,2.51
2018-03-23T04:38:22.114Z,2.55
2018-03-23T04:41:27.609Z,2.52
2018-03-23T04:44:33.158Z,2.48
2018-03-23T04:47:38.640Z,2.52
2018-03-23T04:50:44.184Z,2.50
2018-03-23T04:53:49.731Z,2.49
2018-03-23T04:56:55.289Z,2.50
2018-03-23T05:00:00.780Z,2.47
2018-03-23T05:03:06.342Z,2.46
2018-03-23T05:06:12.086Z,2.46
2018-03-23T05:09:22.836Z,2.47
2018-03-23T05:12:36.744Z,2.47
2018-03-23T05:15:44.468Z,2.48
2018-03-23T05:18:50.198Z,2.51
2018-03-23T05:21:55.920Z,2.50
2018-03-23T05:25:01.491Z,2.47
2018-03-23T05:28:07.059Z,2.46
2018-03-23T05:31:12.554Z,2.49
2018-03-23T05:34:18.101Z,2.50
2018-03-23T05:37:23.634Z,2.47
2018-03-23T05:40:32.254Z,2.48
2018-03-23T05:43:37.793Z,2.48
2018-03-23T05:46:43.293Z,2.47
2018-03-23T05:49:48.842Z,2.46
2018-03-23T05:52:54.427Z,2.48
2018-03-23T05:55:59.972Z,2.44
2018-03-23T05:59:05.521Z,2.44
2018-03-23T06:02:11.102Z,2.45
2018-03-23T06:05:16.452Z,2.44
2018-03-23T06:08:21.994Z,2.44
2018-03-23T06:11:27.493Z,2.43
2018-03-23T06:14:33.033Z,2.44
2018-03-23T06:17:38.542Z,2.45
2018-03-23T06:20:44.096Z,2.45
2018-03-23T06:23:49.588Z,2.45
2018-03-23T06:26:55.117Z,2.45
2018-03-23T06:30:00.659Z,2.46
2018-03-23T06:33:06.242Z,2.47
2018-03-23T06:36:11.733Z,2.44
2018-03-23T06:39:20.666Z,2.44
2018-03-23T06:42:29.759Z,2.45
2018-03-23T06:45:35.309Z,2.47
2018-03-23T06:48:40.840Z,2.47
2018-03-23T06:51:47.060Z,2.47
2018-03-23T06:54:53.044Z,2.48
2018-03-23T06:57:58.618Z,2.49
2018-03-23T07:01:04.220Z,2.50
2018-03-23T07:04:11.181Z,2.51
2018-03-23T07:07:16.718Z,2.53
2018-03-23T07:10:27.178Z,2.55
2018-03-23T07:13:38.970Z,2.57
2018-03-23T07:16:44.645Z,2.59
2018-03-23T07:19:50.192Z,2.62
2018-03-23T07:22:55.735Z,2.62
2018-03-23T07:26:01.226Z,2.66
2018-03-23T07:29:06.765Z,2.66
2018-03-23T07:32:12.296Z,2.67
2018-03-23T07:35:17.782Z,2.69
2018-03-23T07:38:23.316Z,2.72
2018-03-23T07:41:28.697Z,2.73
2018-03-23T07:44:34.201Z,2.75
2018-03-23T07:47:39.754Z,2.78
2018-03-23T07:50:45.291Z,2.80
2018-03-23T07:53:50.834Z,2.86
2018-03-23T07:56:56.390Z,2.88
2018-03-23T08:00:01.971Z,2.90
2018-03-23T08:03:07.525Z,2.94
2018-03-23T08:06:13.011Z,2.98
2018-03-23T08:09:18.545Z,3.01
2018-03-23T08:12:24.048Z,3.04
2018-03-23T08:15:29.602Z,3.08
2018-03-23T08:18:35.118Z,3.13
2018-03-23T08:21:40.667Z,3.16
2018-03-23T08:24:46.205Z,3.20
2018-03-23T08:27:51.750Z,3.23
2018-03-23T08:30:57.240Z,3.25
2018-03-23T08:34:02.780Z,3.28
2018-03-23T08:37:08.277Z,3.32
2018-03-23T08:40:13.829Z,3.37
2018-03-23T08:43:19.406Z,3.40
2018-03-23T08:46:24.906Z,3.44
2018-03-23T08:49:30.257Z,3.48
2018-03-23T08:52:35.765Z,3.51
2018-03-23T08:55:41.304Z,3.54
2018-03-23T08:58:46.832Z,3.57
2018-03-23T09:01:52.381Z,3.60
2018-03-23T09:04:57.887Z,3.63
2018-03-23T09:08:03.433Z,3.65
2018-03-23T09:11:08.693Z,3.67
2018-03-23T09:14:14.221Z,3.69
2018-03-23T09:17:19.714Z,3.73
2018-03-23T09:20:25.255Z,3.75
2018-03-23T09:23:30.753Z,3.77
2018-03-23T09:26:36.290Z,3.80
2018-03-23T09:29:46.692Z,3.84
2018-03-23T09:32:55.329Z,3.87
2018-03-23T09:36:00.876Z,3.89
2018-03-23T09:39:05.923Z,3.95
2018-03-23T09:42:11.478Z,3.98
2018-03-23T09:45:16.971Z,4.01
2018-03-23T09:48:22.530Z,4.04
2018-03-23T09:51:28.027Z,4.09
2018-03-23T09:54:33.573Z,4.15
2018-03-23T09:57:39.085Z,4.20
2018-03-23T10:00:44.617Z,4.24
2018-03-23T10:03:50.061Z,4.29
2018-03-23T10:06:55.777Z,4.34
2018-03-23T10:10:01.361Z,4.40
2018-03-23T10:13:06.901Z,4.47
2018-03-23T10:16:12.426Z,4.52
2018-03-23T10:19:17.986Z,4.59
2018-03-23T10:22:23.489Z,4.65
2018-03-23T10:25:29.033Z,4.71
2018-03-23T10:28:34.596Z,4.78
2018-03-23T10:31:40.170Z,4.84
2018-03-23T10:34:45.414Z,4.90
2018-03-23T10:37:50.960Z,4.97
2018-03-23T10:40:56.506Z,5.02
2018-03-23T10:44:01.790Z,5.09
2018-03-23T10:47:07.368Z,5.14
2018-03-23T10:50:12.972Z,5.20
2018-03-23T10:53:18.492Z,5.27
2018-03-23T10:56:24.106Z,5.31
2018-03-23T10:59:29.593Z,5.39
2018-03-23T11:02:44.889Z,5.46
2018-03-23T11:05:50.402Z,5.52
2018-03-23T11:08:55.939Z,5.60
2018-03-23T11:12:01.497Z,5.64
2018-03-23T11:15:07.439Z,5.72
2018-03-23T11:18:13.085Z,5.76
2018-03-23T11:21:18.653Z,5.82
2018-03-23T11:24:24.171Z,5.88
2018-03-23T11:27:29.745Z,5.91
2018-03-23T11:30:35.141Z,5.96
2018-03-23T11:33:40.681Z,6.00
2018-03-23T11:36:46.165Z,6.04
2018-03-23T11:39:51.775Z,6.08
2018-03-23T11:42:57.464Z,6.10
2018-03-23T11:46:03.003Z,6.13
2018-03-23T11:49:08.637Z,6.16
2018-03-23T11:52:13.983Z,6.16
2018-03-23T11:55:19.519Z,6.21
2018-03-23T11:58:25.084Z,6.23
2018-03-23T12:01:30.593Z,6.26
2018-03-23T12:04:36.176Z,6.30
2018-03-23T12:07:41.586Z,6.32
2018-03-23T12:10:47.140Z,6.34
2018-03-23T12:13:52.729Z,6.38
2018-03-23T12:16:58.113Z,6.41
2018-03-23T12:20:03.647Z,6.46
2018-03-23T12:23:09.261Z,6.48
2018-03-23T12:26:14.809Z,6.51
2018-03-23T12:29:21.510Z,6.53
2018-03-23T12:32:27.005Z,6.56
2018-03-23T12:35:32.544Z,6.59
2018-03-23T12:38:38.238Z,6.62
2018-03-23T12:41:43.789Z,6.64
2018-03-23T12:44:49.338Z,6.66
2018-03-23T12:47:54.884Z,6.69
2018-03-23T12:51:00.415Z,6.73
2018-03-23T12:57:41.157Z,6.78
2018-03-23T13:00:47.469Z,6.82
2018-03-23T13:03:53.017Z,6.83
2018-03-23T13:06:58.590Z,6.88
2018-03-23T13:10:04.143Z,6.92
2018-03-23T13:13:09.698Z,6.93
2018-03-23T13:16:15.217Z,6.95
2018-03-23T13:19:20.770Z,6.99
2018-03-23T13:22:26.345Z,7.01
2018-03-23T13:25:31.869Z,7.03
2018-03-23T13:28:37.419Z,7.06
2018-03-23T13:31:42.952Z,7.09
2018-03-23T13:34:49.683Z,7.11
2018-03-23T13:37:55.223Z,7.14
2018-03-23T13:41:00.790Z,7.17
2018-03-23T13:44:06.312Z,7.20
2018-03-23T13:47:12.061Z,7.22
2018-03-23T13:50:17.659Z,7.23
2018-03-23T13:53:23.375Z,7.24
2018-03-23T13:56:28.943Z,7.26
2018-03-23T13:59:39.941Z,7.29
2018-03-23T14:02:45.503Z,7.34
2018-03-23T14:05:51.103Z,7.34
2018-03-23T14:08:56.754Z,7.37
2018-03-23T14:12:02.477Z,7.35
2018-03-23T14:15:08.028Z,7.36
2018-03-23T14:18:13.830Z,7.37
2018-03-23T14:21:19.383Z,7.39
2018-03-23T14:24:24.965Z,7.39
2018-03-23T14:27:30.570Z,7.39
2018-03-23T14:30:36.471Z,7.39
2018-03-23T14:33:42.178Z,7.39
2018-03-23T14:36:47.708Z,7.40
2018-03-23T14:39:53.298Z,7.40
2018-03-23T14:42:58.872Z,7.39
2018-03-23T14:46:04.442Z,7.39
2018-03-23T14:49:10.113Z,7.39
2018-03-23T14:52:15.731Z,7.39
2018-03-23T14:55:25.660Z,7.38
2018-03-23T14:58:36.645Z,7.36
2018-03-23T15:01:42.323Z,7.35
2018-03-23T15:04:48.198Z,7.34
2018-03-23T15:07:53.760Z,7.30
2018-03-23T15:10:59.328Z,7.32
2018-03-23T15:14:18.165Z,7.28
2018-03-23T15:17:25.565Z,7.26
2018-03-23T15:20:42.104Z,7.27
2018-03-23T15:24:02.749Z,7.25
2018-03-23T15:27:23.127Z,7.25
2018-03-23T15:30:45.532Z,7.22
2018-03-23T15:33:57.578Z,7.21
2018-03-23T15:37:07.240Z,7.20
2018-03-23T15:40:18.754Z,7.20
2018-03-23T15:43:31.936Z,7.23
2018-03-23T15:46:44.910Z,7.23
2018-03-23T15:49:54.966Z,7.21
2018-03-23T15:53:05.537Z,7.21
2018-03-23T15:56:17.217Z,7.19
2018-03-23T15:59:25.829Z,7.18
2018-03-23T16:02:35.769Z,7.14
2018-03-23T16:05:46.073Z,7.12
2018-03-23T16:08:56.247Z,7.14
2018-03-23T16:12:07.260Z,7.13
2018-03-23T16:15:15.023Z,7.10
2018-03-23T16:18:20.585Z,7.09
2018-03-23T16:21:26.217Z,7.07
2018-03-23T16:24:31.726Z,7.08
2018-03-23T16:27:49.147Z,7.05
2018-03-23T16:31:07.337Z,7.03
2018-03-23T16:34:32.736Z,7.02
2018-03-23T16:41:17.952Z,6.98
2018-03-23T16:44:39.667Z,6.96
2018-03-23T16:48:01.415Z,6.95
2018-03-23T16:51:33.264Z,6.93
2018-03-23T16:54:53.757Z,6.91
2018-03-23T16:58:12.733Z,6.89
2018-03-23T17:01:30.261Z,6.87
2018-03-23T17:04:49.311Z,6.84
2018-03-23T17:08:13.737Z,6.83
2018-03-23T17:11:28.112Z,6.82
2018-03-23T17:14:40.833Z,6.80
2018-03-23T17:17:48.746Z,6.77
2018-03-23T17:21:00.067Z,6.76
2018-03-23T17:24:08.652Z,6.75
2018-03-23T17:27:16.807Z,6.73
2018-03-23T17:30:25.763Z,6.70
2018-03-23T17:33:37.001Z,6.69
2018-03-23T17:36:55.032Z,6.68
2018-03-23T17:40:04.410Z,6.62
2018-03-23T17:43:12.152Z,6.59
2018-03-23T17:46:21.251Z,6.57
2018-03-23T17:49:30.170Z,6.53
2018-03-23T17:52:37.875Z,6.52
2018-03-23T17:55:47.821Z,6.49
2018-03-23T17:58:56.266Z,6.47
2018-03-23T18:02:05.251Z,6.45
2018-03-23T18:05:12.052Z,6.43
2018-03-23T18:08:17.877Z,6.41
2018-03-23T18:11:30.677Z,6.40
2018-03-23T18:14:43.216Z,6.36
2018-03-23T18:17:52.858Z,6.34
2018-03-23T18:21:02.312Z,6.32
2018-03-23T18:24:15.188Z,6.29
2018-03-23T18:27:23.452Z,6.27
2018-03-23T18:30:37.651Z,6.25
2018-03-23T18:33:47.233Z,6.24
2018-03-23T18:36:53.325Z,6.22
2018-03-23T18:40:01.038Z,6.21
2018-03-23T18:43:08.345Z,6.19
2018-03-23T18:46:14.689Z,6.17
2018-03-23T18:49:21.868Z,6.16
2018-03-23T18:52:39.160Z,6.15
2018-03-23T18:55:46.734Z,6.13
2018-03-23T18:58:52.291Z,6.10
2018-03-23T19:02:00.644Z,6.09
2018-03-23T19:05:10.945Z,6.07
2018-03-23T19:08:19.460Z,6.05
2018-03-23T19:11:26.077Z,6.04
2018-03-23T19:14:39.179Z,6.02
2018-03-23T19:18:05.519Z,5.99
2018-03-23T19:21:20.094Z,5.97
2018-03-23T19:24:38.405Z,5.96
2018-03-23T19:27:49.834Z,5.94
2018-03-23T19:31:21.233Z,5.92
2018-03-23T19:34:33.714Z,5.89
2018-03-23T19:37:49.540Z,5.86
2018-03-23T19:40:57.136Z,5.85
2018-03-23T19:44:02.713Z,5.86
2018-03-23T19:47:09.042Z,5.81
2018-03-23T19:50:15.686Z,5.80
2018-03-23T19:53:33.565Z,5.79
2018-03-23T19:56:40.070Z,5.77
2018-03-23T19:59:45.567Z,5.77
2018-03-23T20:02:51.175Z,5.74
2018-03-23T20:05:56.875Z,5.72
2018-03-23T20:09:02.480Z,5.71
2018-03-23T20:12:07.788Z,5.68
2018-03-23T20:15:13.922Z,5.66
2018-03-23T20:18:22.729Z,5.63
2018-03-23T20:21:28.221Z,5.61
2018-03-23T20:24:33.803Z,5.59
2018-03-23T20:27:44.668Z,5.58
2018-03-23T20:30:50.554Z,5.56
2018-03-23T20:33:56.131Z,5.54
2018-03-23T20:37:01.669Z,5.53
2018-03-23T20:40:07.218Z,5.51
2018-03-23T20:43:12.777Z,5.50
2018-03-23T20:46:26.839Z,5.48
2018-03-23T20:49:39.710Z,5.49
2018-03-23T20:52:49.120Z,5.48
2018-03-23T20:55:55.251Z,5.46
2018-03-23T20:59:00.825Z,5.45
2018-03-23T21:02:06.346Z,5.42
2018-03-23T21:05:11.927Z,5.40
2018-03-23T21:08:17.413Z,5.39
2018-03-23T21:11:22.948Z,5.38
2018-03-23T21:14:28.354Z,5.36
2018-03-23T21:17:33.850Z,5.33
2018-03-23T21:20:39.399Z,5.32
2018-03-23T21:23:44.915Z,5.31
2018-03-23T21:26:50.490Z,5.29
2018-03-23T21:29:56.026Z,5.28
2018-03-23T21:33:01.532Z,5.27
2018-03-23T21:36:07.126Z,5.25
2018-03-23T21:39:12.684Z,5.23
2018-03-23T21:42:18.221Z,5.22
2018-03-23T21:45:23.826Z,5.21
2018-03-23T21:48:29.326Z,5.19
2018-03-23T21:51:34.724Z,5.19
2018-03-23T21:54:40.270Z,5.18
2018-03-23T21:57:45.836Z,5.15
2018-03-23T22:00:51.342Z,5.15
2018-03-23T22:03:56.901Z,5.13
2018-03-23T22:07:02.406Z,5.12
2018-03-23T22:10:08.064Z,5.10
2018-03-23T22:13:13.616Z,5.09
2018-03-23T22:16:19.129Z,5.09
2018-03-23T22:19:25.076Z,5.08
2018-03-23T22:22:30.634Z,5.07
2018-03-23T22:25:36.141Z,5.04
2018-03-23T22:28:41.708Z,5.02
2018-03-23T22:31:47.220Z,5.01
2018-03-23T22:34:52.775Z,4.99
2018-03-23T22:37:58.339Z,4.99
2018-03-23T22:41:03.908Z,4.97
2018-03-23T22:44:09.443Z,4.95
2018-03-23T22:47:15.002Z,4.95
2018-03-23T22:50:20.513Z,4.95
2018-03-23T22:53:26.393Z,4.94
2018-03-23T22:56:31.933Z,4.92
2018-03-23T22:59:37.470Z,4.92
2018-03-23T23:02:42.982Z,4.90
2018-03-23T23:05:48.548Z,4.88
2018-03-23T23:08:54.145Z,4.87
2018-03-23T23:11:59.695Z,4.87
2018-03-23T23:15:04.891Z,4.86
2018-03-23T23:18:10.459Z,4.84
2018-03-23T23:21:15.964Z,4.84
2018-03-23T23:24:21.503Z,4.84
2018-03-23T23:27:27.105Z,4.81
2018-03-23T23:30:33.694Z,4.80
2018-03-23T23:33:39.235Z,4.80
2018-03-23T23:36:44.992Z,4.79
2018-03-23T23:39:50.494Z,4.78
2018-03-23T23:42:56.049Z,4.78
2018-03-23T23:46:01.567Z,4.76
2018-03-23T23:49:07.141Z,4.78
2018-03-23T23:52:12.644Z,4.77
2018-03-23T23:55:18.174Z,4.74
2018-03-23T23:58:23.673Z,4.74
